Time;durP1;ratioP1;P1;durP2;ratioP2;P2;SDS_P1;SDS_P2;PMS_P1;PMS_P2;Temp;Humidity;BMP_temperature;BMP_pressure;BME280_temperature;BME280_humidity;BME280_pressure;Samples;Min_cycle;Max_cycle;Signal;HPM_P1;HPM_P2
2022/01/16 00:00:16;;;;;;;6.75;3.95;;;;;;;0.79;49.56;97253.44;5113511;28;20040;-62
2022/01/16 00:05:30;;;;;;;6.43;4.07;;;;;;;0.85;49.73;97243.22;5113527;28;20032;-62
2022/01/16 00:07:56;;;;;;;6.57;4.00;;;;;;;0.67;50.22;97244.72;5113633;28;20080;-63
2022/01/16 00:10:24;;;;;;;6.80;3.80;;;;;;;0.73;50.17;97247.34;5113461;28;20028;-61
2022/01/16 00:12:52;;;;;;;5.47;3.67;;;;;;;0.72;49.89;97258.50;5113360;28;20035;-61
2022/01/16 00:15:21;;;;;;;6.25;3.13;;;;;;;0.69;50.18;97260.19;5113380;28;20534;-62
2022/01/16 00:20:20;;;;;;;5.18;3.47;;;;;;;0.75;49.82;97252.50;5116123;28;20078;-63
2022/01/16 00:22:47;;;;;;;7.35;3.00;;;;;;;0.65;50.08;97261.84;5117562;28;20469;-62
2022/01/16 00:25:12;;;;;;;10.18;4.30;;;;;;;0.67;49.95;97267.03;5117471;28;20068;-62
2022/01/16 00:27:38;;;;;;;9.57;4.25;;;;;;;0.68;49.92;97279.03;5117561;28;20098;-61
2022/01/16 00:30:04;;;;;;;6.28;3.45;;;;;;;0.70;49.88;97305.69;5117565;28;20045;-62
2022/01/16 00:32:30;;;;;;;7.47;4.28;;;;;;;0.75;50.23;97343.56;5117385;28;20020;-62
2022/01/16 00:34:56;;;;;;;6.28;4.10;;;;;;;0.74;49.73;97359.88;5117486;27;20137;-62
2022/01/16 00:37:22;;;;;;;9.07;3.97;;;;;;;0.80;50.00;97397.72;5117291;28;20022;-62
2022/01/16 00:39:47;;;;;;;9.32;3.95;;;;;;;0.76;50.02;97401.09;5117325;28;20072;-62
2022/01/16 00:42:13;;;;;;;7.63;3.58;;;;;;;0.82;49.57;97356.53;5117162;28;20023;-62
2022/01/16 00:44:38;;;;;;;9.55;3.88;;;;;;;0.74;49.71;97292.88;5117314;28;20028;-62
2022/01/16 00:47:04;;;;;;;6.38;3.83;;;;;;;0.69;50.12;97240.44;5117250;28;20019;-62
2022/01/16 00:49:34;;;;;;;5.97;3.28;;;;;;;0.59;50.75;97169.06;5117197;28;20044;-62
2022/01/16 00:52:00;;;;;;;6.65;4.05;;;;;;;0.52;51.36;97123.47;5117045;28;20065;-62
2022/01/16 00:54:25;;;;;;;8.65;4.07;;;;;;;0.45;51.17;97128.56;5116946;28;20056;-62
2022/01/16 00:56:51;;;;;;;7.15;3.65;;;;;;;0.40;51.11;97147.38;5116868;28;20047;-62
2022/01/16 00:59:16;;;;;;;7.15;3.60;;;;;;;0.37;51.39;97161.09;5116937;28;20027;-63
2022/01/16 01:01:42;;;;;;;7.28;4.00;;;;;;;0.25;52.06;97157.50;5116811;28;20019;-61
2022/01/16 01:04:07;;;;;;;6.93;3.90;;;;;;;0.19;51.99;97180.59;5116760;28;20084;-62
2022/01/16 01:06:33;;;;;;;5.95;4.18;;;;;;;0.07;51.88;97212.16;5116942;28;20023;-62
2022/01/16 01:08:58;;;;;;;6.25;3.75;;;;;;;0.02;52.08;97246.38;5116772;28;20354;-62
2022/01/16 01:11:27;;;;;;;5.10;3.25;;;;;;;0.05;52.30;97273.03;5116810;28;20045;-62
2022/01/16 01:19:16;;;;;;;5.20;3.53;;;;;;;-0.08;53.57;97253.09;5116417;28;20157;-62
2022/01/16 01:21:41;;;;;;;11.05;3.47;;;;;;;-0.17;53.43;97264.97;5116498;28;20063;-62
2022/01/16 01:24:07;;;;;;;7.85;4.00;;;;;;;-0.20;53.22;97264.06;5116537;28;20535;-62
2022/01/16 01:26:39;;;;;;;8.32;3.63;;;;;;;-0.22;53.12;97274.31;5116444;28;20030;-61
2022/01/16 01:29:05;;;;;;;8.10;4.38;;;;;;;-0.25;53.35;97266.53;5116438;28;20450;-62
2022/01/16 01:31:31;;;;;;;5.90;3.45;;;;;;;-0.22;53.13;97258.88;5115651;28;20107;-62
2022/01/16 01:33:57;;;;;;;6.97;3.65;;;;;;;-0.29;53.31;97264.75;5116339;27;20020;-61
2022/01/16 01:36:23;;;;;;;4.90;3.30;;;;;;;-0.23;53.19;97271.72;5116241;28;20027;-61
2022/01/16 01:38:48;;;;;;;7.85;4.40;;;;;;;-0.21;53.26;97275.19;5116185;28;20020;-63
2022/01/16 01:41:14;;;;;;;6.30;3.20;;;;;;;-0.20;53.16;97276.91;5116184;28;20050;-61
2022/01/16 01:51:42;;;;;;;7.32;3.97;;;;;;;-0.34;53.40;97292.97;5116272;28;20496;-61
2022/01/16 01:54:08;;;;;;;5.60;3.30;;;;;;;-0.33;53.39;97291.28;5115993;28;20061;-61
2022/01/16 01:56:36;;;;;;;5.28;3.58;;;;;;;-0.31;53.48;97299.88;5115741;28;20477;-62
2022/01/16 01:59:03;;;;;;;5.63;3.17;;;;;;;-0.29;53.36;97295.63;5114539;28;20421;-62
2022/01/16 02:01:29;;;;;;;6.97;3.88;;;;;;;-0.29;53.59;97311.06;5115599;28;20202;-62
2022/01/16 02:03:55;;;;;;;5.40;3.28;;;;;;;-0.29;53.53;97317.06;5115671;28;20050;-62
2022/01/16 02:06:26;;;;;;;6.57;3.67;;;;;;;-0.30;53.56;97301.63;5115629;28;20416;-62
2022/01/16 02:08:55;;;;;;;7.43;4.45;;;;;;;-0.32;53.45;97305.84;5115723;28;20031;-62
2022/01/16 02:11:24;;;;;;;7.20;3.45;;;;;;;-0.32;53.25;97311.88;5115600;28;20384;-62
2022/01/16 02:35:10;;;;;;;6.57;3.47;;;;;;;-1.53;57.82;97310.34;5115117;28;20036;-62
2022/01/16 02:37:36;;;;;;;8.50;3.67;;;;;;;-1.59;57.70;97297.38;5115050;28;20024;-62
2022/01/16 02:40:10;;;;;;;31.00;16.23;;;;;;;-1.62;57.97;97293.06;5114959;28;20649;-62
2022/01/16 02:42:39;;;;;;;20.90;10.88;;;;;;;-1.58;58.63;97288.84;5114152;28;20465;-62
2022/01/16 02:45:06;;;;;;;23.85;12.45;;;;;;;-1.59;58.61;97287.13;5114899;28;20023;-62
2022/01/16 02:47:32;;;;;;;18.63;9.32;;;;;;;-1.56;58.39;97288.03;5114810;28;20028;-62
2022/01/16 02:50:00;;;;;;;11.95;6.78;;;;;;;-1.59;58.67;97294.81;5114739;28;20111;-62
2022/01/16 02:52:26;;;;;;;12.10;6.15;;;;;;;-1.61;58.94;97304.16;5114642;28;20045;-62
2022/01/16 02:54:54;;;;;;;8.82;5.35;;;;;;;-1.66;58.98;97292.09;5114721;28;20533;-62
2022/01/16 02:57:21;;;;;;;10.98;4.68;;;;;;;-1.67;58.47;97297.19;5114629;27;20468;-62
2022/01/16 02:59:51;;;;;;;11.15;4.63;;;;;;;-1.65;58.18;97287.84;5114527;28;20016;-62
2022/01/16 03:02:19;;;;;;;10.75;5.18;;;;;;;-1.68;58.06;97293.75;5114571;28;20077;-62
2022/01/16 03:04:44;;;;;;;8.10;5.15;;;;;;;-1.57;58.83;97283.75;5114608;28;20433;-62
2022/01/16 03:07:10;;;;;;;11.43;6.30;;;;;;;-1.55;58.95;97279.53;5114442;28;20108;-62
2022/01/16 03:12:10;;;;;;;11.00;6.53;;;;;;;-1.74;58.81;97285.94;5114421;28;20043;-62
2022/01/16 03:14:36;;;;;;;9.80;5.38;;;;;;;-1.83;58.89;97271.22;5114309;28;20024;-62
2022/01/16 03:17:02;;;;;;;13.57;7.75;;;;;;;-1.83;59.11;97275.47;5114298;28;20055;-62
2022/01/16 03:22:12;;;;;;;12.43;6.47;;;;;;;-1.83;59.31;97275.47;5114422;28;20030;-62
2022/01/16 03:24:40;;;;;;;14.82;7.03;;;;;;;-1.78;59.22;97281.56;5114165;28;20027;-62
2022/01/16 03:27:11;;;;;;;10.65;5.65;;;;;;;-1.72;59.21;97291.97;5114041;28;20019;-62
2022/01/16 03:29:39;;;;;;;10.23;5.85;;;;;;;-1.62;58.82;97298.19;5114067;28;20406;-62
2022/01/16 03:32:08;;;;;;;16.23;8.13;;;;;;;-1.67;59.56;97305.78;5113958;28;20019;-62
2022/01/16 03:34:34;;;;;;;15.20;7.78;;;;;;;-1.72;59.46;97302.22;5114019;28;20496;-62
2022/01/16 03:36:59;;;;;;;7.55;5.05;;;;;;;-1.74;59.04;97306.47;5113975;28;20034;-62
2022/01/16 03:39:25;;;;;;;16.58;7.22;;;;;;;-1.88;59.62;97318.09;5113903;28;20020;-62
2022/01/16 03:41:51;;;;;;;15.40;5.97;;;;;;;-1.93;60.33;97312.84;5113766;28;20530;-62
2022/01/16 03:44:16;;;;;;;8.80;4.63;;;;;;;-2.05;60.48;97315.97;5113857;28;20028;-62
2022/01/16 03:46:44;;;;;;;8.60;4.90;;;;;;;-2.26;60.98;97309.50;5113714;28;20015;-62
2022/01/16 03:49:12;;;;;;;14.63;7.72;;;;;;;-2.35;61.06;97328.06;5113827;28;20397;-62
2022/01/16 03:51:40;;;;;;;8.35;4.35;;;;;;;-2.38;61.77;97325.41;5113550;28;20023;-62
2022/01/16 03:54:08;;;;;;;9.02;4.45;;;;;;;-2.47;61.21;97322.66;5113493;28;20051;-61
2022/01/16 03:56:33;;;;;;;7.70;3.25;;;;;;;-2.67;61.88;97322.97;5113679;28;20023;-61
2022/01/16 03:58:59;;;;;;;6.22;3.63;;;;;;;-2.87;62.26;97323.28;5113727;28;20106;-62
2022/01/16 04:01:24;;;;;;;7.47;3.50;;;;;;;-3.01;63.08;97322.03;5113653;28;20028;-61
2022/01/16 04:03:54;;;;;;;5.88;3.40;;;;;;;-3.02;63.26;97322.84;5113677;28;20359;-61
2022/01/16 04:06:20;;;;;;;4.65;3.03;;;;;;;-3.05;63.01;97321.97;5113555;28;20031;-62
2022/01/16 04:08:47;;;;;;;7.35;3.78;;;;;;;-3.08;62.76;97324.44;5113595;28;20015;-62
2022/01/16 04:11:13;;;;;;;5.30;3.20;;;;;;;-3.11;63.05;97328.56;5113594;28;21220;-61
2022/01/16 04:13:48;;;;;;;8.13;3.50;;;;;;;-3.07;62.90;97331.28;5113475;28;20088;-62
2022/01/16 04:16:13;;;;;;;7.30;3.63;;;;;;;-3.05;62.95;97339.88;5113564;28;20785;-62
2022/01/16 04:18:39;;;;;;;10.02;4.28;;;;;;;-3.25;63.47;97343.56;5113152;28;20580;-62
2022/01/16 04:21:05;;;;;;;13.10;6.60;;;;;;;-3.37;64.13;97344.91;5113446;28;20028;-61
2022/01/16 04:23:30;;;;;;;7.03;4.60;;;;;;;-3.41;64.19;97344.78;5113455;28;20111;-62
2022/01/16 04:25:56;;;;;;;7.57;4.72;;;;;;;-3.39;64.30;97340.56;5113429;28;20506;-61
2022/01/16 04:28:24;;;;;;;8.82;4.30;;;;;;;-3.40;64.75;97346.53;5113311;28;20035;-62
2022/01/16 04:30:53;;;;;;;8.45;4.18;;;;;;;-3.41;64.90;97348.19;5113348;28;20024;-61
2022/01/16 04:33:20;;;;;;;5.63;3.20;;;;;;;-3.45;64.73;97341.25;5113203;28;20076;-62
2022/01/16 04:35:46;;;;;;;6.80;3.17;;;;;;;-3.58;64.82;97350.25;5113322;28;20126;-62
2022/01/16 04:38:12;;;;;;;8.75;3.72;;;;;;;-3.62;65.13;97358.63;5113215;28;20533;-61
2022/01/16 04:40:44;;;;;;;9.27;4.32;;;;;;;-3.66;65.30;97351.69;5113254;28;20024;-61
2022/01/16 04:45:58;;;;;;;5.55;3.80;;;;;;;-3.80;65.68;97370.03;5113466;28;20508;-61
2022/01/16 04:48:24;;;;;;;10.68;5.43;;;;;;;-3.90;66.07;97362.88;5113280;28;20016;-62
2022/01/16 04:50:50;;;;;;;6.97;3.83;;;;;;;-3.91;65.74;97361.16;5113067;28;20102;-61
2022/01/16 04:53:15;;;;;;;12.73;5.47;;;;;;;-3.98;65.94;97357.50;5113004;28;20111;-62
2022/01/16 04:55:42;;;;;;;17.70;8.18;;;;;;;-4.02;66.28;97365.91;5113163;28;20027;-61
2022/01/16 04:58:07;;;;;;;16.33;6.30;;;;;;;-4.09;66.41;97359.72;5112990;28;20024;-61
2022/01/16 05:00:33;;;;;;;11.13;5.05;;;;;;;-4.15;66.51;97354.41;5113123;28;20107;-62
2022/01/16 05:02:58;;;;;;;5.57;3.47;;;;;;;-4.19;66.39;97371.31;5113150;28;20080;-61
2022/01/16 05:05:24;;;;;;;8.75;3.83;;;;;;;-4.14;66.46;97368.91;5113903;28;20366;-62
2022/01/16 05:07:50;;;;;;;9.07;4.65;;;;;;;-4.17;66.37;97359.47;5116736;28;20019;-62
2022/01/16 05:10:15;;;;;;;5.35;3.85;;;;;;;-4.31;66.46;97365.00;5116783;28;20423;-61
2022/01/16 05:12:44;;;;;;;6.53;3.20;;;;;;;-4.37;66.64;97369.03;5116622;28;20034;-61
2022/01/16 05:17:54;;;;;;;14.43;6.63;;;;;;;-4.46;66.88;97373.00;5116727;28;20216;-61
2022/01/16 05:20:20;;;;;;;50.35;16.67;;;;;;;-4.60;67.23;97377.59;5116676;28;20160;-62
2022/01/16 05:22:46;;;;;;;23.35;9.50;;;;;;;-4.67;67.26;97370.53;5116504;28;20031;-61
2022/01/16 05:25:14;;;;;;;11.80;5.20;;;;;;;-4.75;67.07;97366.88;5116462;28;20024;-61
2022/01/16 05:27:40;;;;;;;7.35;4.30;;;;;;;-4.79;67.51;97373.53;5116383;28;20448;-61
2022/01/16 05:30:06;;;;;;;4.90;3.17;;;;;;;-4.78;67.32;97371.88;5116277;28;20043;-61
2022/01/16 05:32:32;;;;;;;6.35;3.47;;;;;;;-4.80;67.44;97366.69;5116190;28;20066;-61
2022/01/16 05:34:57;;;;;;;5.28;3.28;;;;;;;-4.91;67.56;97360.34;5116368;28;20039;-61
2022/01/16 05:37:23;;;;;;;6.38;3.30;;;;;;;-4.89;67.76;97368.91;5116362;28;20024;-61
2022/01/16 05:39:49;;;;;;;7.90;3.20;;;;;;;-4.92;67.66;97367.13;5116199;28;20015;-62
2022/01/16 05:42:15;;;;;;;5.38;3.10;;;;;;;-4.87;67.74;97382.63;5116050;27;20012;-61
2022/01/16 05:44:41;;;;;;;30.85;17.95;;;;;;;-4.92;67.76;97382.44;5116222;28;20546;-62
2022/01/16 05:47:06;;;;;;;11.63;5.65;;;;;;;-5.01;68.51;97377.88;5116059;28;20019;-61
2022/01/16 05:49:32;;;;;;;6.13;3.53;;;;;;;-5.10;69.24;97380.06;5114919;28;20023;-62
2022/01/16 05:51:58;;;;;;;6.03;3.33;;;;;;;-5.04;69.02;97376.88;5115833;28;20036;-62
2022/01/16 05:54:23;;;;;;;6.38;2.90;;;;;;;-5.00;68.98;97386.41;5115950;28;20020;-62
2022/01/16 05:56:49;;;;;;;5.35;3.00;;;;;;;-4.92;68.75;97392.66;5115757;28;20023;-62
2022/01/16 05:59:15;;;;;;;8.15;3.55;;;;;;;-4.97;69.19;97399.28;5115718;28;20066;-62
2022/01/16 06:01:40;;;;;;;6.10;3.70;;;;;;;-4.95;69.05;97397.66;5115900;28;20037;-62
2022/01/16 06:04:06;;;;;;;8.13;4.03;;;;;;;-4.97;69.06;97405.25;5115747;28;20053;-62
2022/01/16 06:06:31;;;;;;;4.78;2.83;;;;;;;-5.05;69.34;97396.44;5115700;28;20020;-62
2022/01/16 06:08:57;;;;;;;5.75;3.05;;;;;;;-4.99;69.81;97400.91;5115725;27;20020;-62
2022/01/16 06:11:23;;;;;;;7.45;4.03;;;;;;;-4.87;69.47;97411.59;5115602;28;20020;-62
2022/01/16 06:13:48;;;;;;;8.57;3.38;;;;;;;-4.79;69.23;97413.53;5115485;28;20031;-62
2022/01/16 06:16:14;;;;;;;9.35;3.67;;;;;;;-4.87;69.36;97419.25;5115402;28;20032;-62
2022/01/16 06:18:40;;;;;;;7.70;3.42;;;;;;;-4.92;69.54;97413.06;5115263;28;20043;-62
2022/01/16 06:21:05;;;;;;;9.07;3.88;;;;;;;-4.87;69.98;97419.25;5115374;28;20016;-62
2022/01/16 06:23:31;;;;;;;10.07;3.50;;;;;;;-3.91;69.98;97431.06;5115399;28;20034;-62
2022/01/16 06:25:56;;;;;;;4.80;2.95;;;;;;;-1.88;64.44;97420.69;5115373;28;20023;-63
2022/01/16 06:28:27;;;;;;;5.13;2.80;;;;;;;0.07;57.86;97425.75;5115229;28;20028;-63
2022/01/16 06:30:52;;;;;;;;;;;;;;;1.85;50.86;97424.81;5115503;28;20465;-62
2022/01/16 06:33:18;;;;;;;6.80;2.75;;;;;;;3.57;46.67;97419.19;5113710;28;19912;-63
2022/01/16 06:35:44;;;;;;;5.47;2.92;;;;;;;5.12;43.35;97427.13;5115099;28;20020;-63
2022/01/16 06:38:10;;;;;;;5.68;2.75;;;;;;;6.42;40.14;97441.28;5115150;28;20542;-63
2022/01/16 06:40:35;;;;;;;3.90;2.58;;;;;;;7.55;37.88;97445.47;5115014;28;20454;-62
2022/01/16 06:43:01;;;;;;;4.72;3.03;;;;;;;8.06;36.62;97447.47;5114934;28;20027;-64
2022/01/16 06:45:28;;;;;;;3.97;2.92;;;;;;;8.81;35.15;97448.16;5114942;27;20028;-64
2022/01/16 06:47:54;;;;;;;4.63;3.08;;;;;;;10.02;32.73;97449.41;5114833;28;20465;-64
2022/01/16 06:50:20;;;;;;;4.97;2.92;;;;;;;11.09;30.71;97459.19;5114914;28;20485;-66
2022/01/16 06:52:45;;;;;;;5.10;3.55;;;;;;;11.52;29.88;97453.69;5114577;28;20035;-63
2022/01/16 06:55:12;;;;;;;5.43;3.70;;;;;;;12.03;29.33;97451.41;5114658;28;20073;-65
2022/01/16 06:57:38;;;;;;;6.13;3.58;;;;;;;12.55;28.69;97459.50;5114824;28;20020;-65
2022/01/16 07:00:06;;;;;;;7.55;4.38;;;;;;;13.51;27.42;97449.38;5114755;28;20542;-65
2022/01/16 07:02:32;;;;;;;4.82;3.40;;;;;;;14.14;26.40;97458.50;5114578;28;20103;-63
2022/01/16 07:04:57;;;;;;;5.53;3.45;;;;;;;14.55;25.69;97454.34;5114539;28;20099;-64
2022/01/16 07:07:23;;;;;;;6.40;3.75;;;;;;;14.91;24.83;97457.28;5114471;28;20102;-65
2022/01/16 07:09:49;;;;;;;5.40;3.72;;;;;;;15.69;23.95;97461.09;5114303;28;20534;-64
2022/01/16 07:12:14;;;;;;;4.60;3.60;;;;;;;16.41;23.36;97473.75;5114251;28;20019;-66
2022/01/16 07:14:40;;;;;;;6.00;3.50;;;;;;;16.90;22.90;97489.03;5114457;28;20016;-65
2022/01/16 07:17:06;;;;;;;5.45;3.63;;;;;;;17.01;22.32;97496.41;5114085;28;20107;-65
2022/01/16 07:19:33;;;;;;;5.72;3.40;;;;;;;17.33;22.10;97495.78;5114003;28;20055;-63
2022/01/16 07:21:58;;;;;;;5.28;3.67;;;;;;;17.24;21.98;97501.53;5114189;28;20028;-65
2022/01/16 07:24:24;;;;;;;5.53;3.70;;;;;;;17.49;22.03;97498.50;5114260;28;20031;-63
2022/01/16 07:26:54;;;;;;;5.90;3.90;;;;;;;17.79;21.38;97499.66;5114024;28;20051;-64
2022/01/16 07:29:20;;;;;;;5.68;4.03;;;;;;;17.88;21.01;97487.72;5113536;28;20032;-64
2022/01/16 07:31:46;;;;;;;7.72;3.88;;;;;;;18.17;21.41;97490.63;5113935;28;20427;-65
2022/01/16 07:34:12;;;;;;;8.80;4.97;;;;;;;18.61;21.23;97498.88;5114088;28;20024;-64
2022/01/16 07:36:38;;;;;;;6.13;3.95;;;;;;;19.39;20.01;97490.03;5114071;28;20465;-65
2022/01/16 07:39:04;;;;;;;6.45;4.35;;;;;;;20.13;19.66;97493.69;5113844;28;20015;-68
2022/01/16 07:41:30;;;;;;;8.10;4.40;;;;;;;20.36;19.32;97494.06;5113810;28;20385;-64
2022/01/16 07:43:55;;;;;;;6.38;4.10;;;;;;;20.63;18.79;97502.09;5112769;28;20076;-64
2022/01/16 07:46:21;;;;;;;5.85;4.32;;;;;;;20.86;18.14;97496.22;5113883;28;20426;-64
2022/01/16 07:48:47;;;;;;;5.97;4.53;;;;;;;21.11;17.81;97513.28;5113919;28;20020;-68
2022/01/16 07:51:13;;;;;;;5.80;4.43;;;;;;;21.13;17.86;97514.88;5113796;28;20019;-66
2022/01/16 07:53:38;;;;;;;5.97;4.57;;;;;;;21.02;17.73;97510.28;5113550;28;20381;-65
2022/01/16 07:56:04;;;;;;;8.15;4.70;;;;;;;21.30;17.31;97513.75;5113706;28;20063;-63
2022/01/16 07:58:30;;;;;;;6.88;5.15;;;;;;;21.31;17.22;97515.44;5113577;28;20019;-64
2022/01/16 08:00:58;;;;;;;6.68;5.50;;;;;;;21.52;17.10;97519.47;5113674;28;20027;-63
2022/01/16 08:03:24;;;;;;;7.72;5.07;;;;;;;21.14;17.00;97527.22;5113511;28;20020;-66
2022/01/16 08:05:50;;;;;;;7.88;5.05;;;;;;;21.00;17.45;97527.25;5113515;28;20359;-62
2022/01/16 08:08:16;;;;;;;6.88;5.05;;;;;;;20.20;18.00;97522.44;5113570;28;20020;-63
2022/01/16 08:10:42;;;;;;;6.70;5.25;;;;;;;19.70;18.18;97517.44;5113609;28;20380;-66
2022/01/16 08:13:07;;;;;;;7.03;5.35;;;;;;;18.50;19.74;97512.72;5113491;28;20369;-62
2022/01/16 08:15:36;;;;;;;7.75;5.93;;;;;;;18.80;19.57;97519.91;5113485;28;20469;-63
2022/01/16 08:18:02;;;;;;;7.40;5.25;;;;;;;19.13;18.96;97516.31;5113195;28;20019;-63
2022/01/16 08:20:29;;;;;;;7.88;5.82;;;;;;;19.25;19.44;97505.94;5113692;28;20393;-64
2022/01/16 08:22:55;;;;;;;8.27;5.72;;;;;;;18.94;19.73;97492.63;5113564;28;20035;-62
2022/01/16 08:25:23;;;;;;;7.90;5.45;;;;;;;18.74;19.28;97491.94;5113429;28;20019;-65
2022/01/16 08:27:49;;;;;;;8.70;5.78;;;;;;;18.75;20.26;97504.25;5113444;28;20020;-66
2022/01/16 08:30:16;;;;;;;7.88;5.00;;;;;;;18.74;19.06;97502.56;5113477;28;20039;-63
2022/01/16 08:32:45;;;;;;;7.65;6.22;;;;;;;17.62;20.98;97505.81;5113308;28;20055;-66
2022/01/16 08:35:13;;;;;;;8.00;5.50;;;;;;;17.85;20.42;97504.59;5113400;28;20111;-62
2022/01/16 08:37:39;;;;;;;6.32;4.68;;;;;;;18.20;19.94;97495.75;5113417;28;20024;-63
2022/01/16 08:40:06;;;;;;;6.97;5.20;;;;;;;16.54;21.64;97493.38;5113893;28;20051;-63
2022/01/16 08:42:32;;;;;;;7.97;5.35;;;;;;;15.76;22.80;97501.22;5117319;28;20028;-65
2022/01/16 08:44:58;;;;;;;10.30;5.97;;;;;;;15.77;22.70;97506.44;5117385;28;20480;-65
2022/01/16 08:47:24;;;;;;;7.57;4.88;;;;;;;15.64;22.46;97497.34;5117232;28;20034;-62
2022/01/16 08:49:49;;;;;;;6.03;4.65;;;;;;;15.34;23.04;97500.38;5117239;28;20098;-62
2022/01/16 08:52:17;;;;;;;6.93;4.80;;;;;;;13.98;24.45;97484.53;5117183;28;20031;-64
2022/01/16 08:54:42;;;;;;;7.43;5.35;;;;;;;12.90;25.70;97501.31;5116947;28;20051;-65
2022/01/16 08:57:08;;;;;;;7.20;5.28;;;;;;;11.81;28.74;97500.09;5117025;28;20477;-65
2022/01/16 08:59:34;;;;;;;7.53;5.25;;;;;;;11.07;29.98;97501.13;5117070;28;20050;-64
2022/01/16 09:01:59;;;;;;;8.50;5.25;;;;;;;10.16;30.75;97499.66;5116960;28;20024;-65
2022/01/16 09:04:25;;;;;;;7.95;4.60;;;;;;;9.56;31.02;97491.25;5116955;27;20027;-63
2022/01/16 09:06:51;;;;;;;9.02;5.38;;;;;;;9.38;32.19;97489.81;5115765;28;20505;-64
2022/01/16 09:09:16;;;;;;;6.85;4.47;;;;;;;8.82;32.99;97489.03;5116856;28;20351;-62
2022/01/16 09:11:42;;;;;;;8.48;4.75;;;;;;;8.19;33.87;97483.81;5116772;27;20485;-64
2022/01/16 09:14:07;;;;;;;7.40;4.80;;;;;;;7.94;34.26;97476.28;5116737;28;20051;-62
2022/01/16 09:16:33;;;;;;;8.82;4.40;;;;;;;7.60;34.55;97482.78;5116831;28;20020;-65
2022/01/16 09:19:00;;;;;;;7.72;4.35;;;;;;;7.20;34.91;97476.22;5115297;28;20106;-63
2022/01/16 09:21:25;;;;;;;11.95;4.25;;;;;;;6.70;37.15;97482.72;5116661;28;20044;-64
2022/01/16 09:23:51;;;;;;;15.10;4.22;;;;;;;6.32;38.04;97481.22;5116562;28;20392;-64
2022/01/16 09:26:17;;;;;;;10.73;4.82;;;;;;;6.04;38.42;97474.44;5116654;28;20069;-64
2022/01/16 09:28:44;;;;;;;9.30;4.95;;;;;;;5.88;38.47;97467.56;5116449;28;20601;-63
2022/01/16 09:31:10;;;;;;;7.90;4.70;;;;;;;5.69;39.24;97468.50;5116412;28;20028;-63
2022/01/16 09:33:37;;;;;;;9.52;5.03;;;;;;;5.57;38.84;97461.59;5116277;28;20028;-63
2022/01/16 09:36:04;;;;;;;10.10;4.75;;;;;;;5.64;39.91;97469.38;5116320;28;20041;-64
2022/01/16 09:38:31;;;;;;;9.23;4.38;;;;;;;5.76;38.94;97458.97;5116297;28;20090;-64
2022/01/16 09:40:57;;;;;;;11.05;4.28;;;;;;;5.67;39.83;97454.66;5116224;28;20596;-63
2022/01/16 09:43:23;;;;;;;9.15;5.20;;;;;;;5.60;39.91;97455.53;5116280;28;20057;-64
2022/01/16 09:45:51;;;;;;;7.63;4.20;;;;;;;5.60;40.18;97455.53;5116284;28;20103;-64
2022/01/16 09:48:18;;;;;;;10.25;4.75;;;;;;;5.56;39.97;97453.81;5116112;28;20111;-63
2022/01/16 09:50:44;;;;;;;10.50;4.47;;;;;;;5.40;39.58;97445.22;5115578;28;20023;-64
2022/01/16 09:53:12;;;;;;;12.77;4.78;;;;;;;5.36;39.93;97446.09;5115925;28;20031;-63
2022/01/16 09:55:37;;;;;;;9.52;4.18;;;;;;;5.38;37.75;97442.63;5115996;27;20047;-63
2022/01/16 09:58:03;;;;;;;6.68;3.83;;;;;;;5.26;38.39;97430.56;5115930;28;20020;-63
2022/01/16 10:00:29;;;;;;;9.80;4.85;;;;;;;5.22;39.91;97440.94;5116184;28;20024;-63
2022/01/16 10:02:55;;;;;;;11.80;5.10;;;;;;;5.14;40.13;97439.22;5115914;28;20050;-64
2022/01/16 10:05:25;;;;;;;8.63;4.95;;;;;;;5.12;40.82;97433.16;5115722;28;20038;-63
2022/01/16 10:07:53;;;;;;;10.48;5.78;;;;;;;5.25;40.64;97435.75;5115785;28;20358;-63
2022/01/16 10:10:23;;;;;;;10.52;4.20;;;;;;;5.18;40.24;97434.91;5115602;28;20024;-62
2022/01/16 10:12:52;;;;;;;6.68;3.97;;;;;;;5.41;38.85;97432.25;5115654;28;20070;-64
2022/01/16 10:15:24;;;;;;;6.65;4.28;;;;;;;5.41;39.61;97426.19;5115528;28;20023;-63
2022/01/16 10:17:52;;;;;;;7.57;3.90;;;;;;;5.26;39.86;97429.69;5115587;28;20028;-63
2022/01/16 10:20:19;;;;;;;6.97;4.75;;;;;;;5.34;39.53;97427.06;5115351;28;20101;-63
2022/01/16 10:22:57;;;;;;;7.00;4.57;;;;;;;5.29;38.46;97424.50;5115342;28;20023;-64
2022/01/16 10:25:37;;;;;;;7.93;5.05;;;;;;;5.26;40.44;97416.72;5115412;28;20019;-63
2022/01/16 10:28:21;;;;;;;8.60;3.83;;;;;;;5.30;40.50;97419.28;5115426;28;20544;-62
2022/01/16 10:30:50;;;;;;;11.30;6.00;;;;;;;5.28;40.54;97408.06;5115263;28;20043;-63
2022/01/16 10:33:19;;;;;;;8.32;4.97;;;;;;;5.24;41.44;97414.13;5115021;28;20115;-62
2022/01/16 10:35:47;;;;;;;9.18;5.07;;;;;;;5.36;41.04;97402.84;5114998;28;20027;-63
2022/01/16 10:38:25;;;;;;;8.18;4.40;;;;;;;5.41;40.26;97398.50;5115028;28;20022;-64
2022/01/16 10:40:52;;;;;;;9.70;5.22;;;;;;;5.59;40.58;97394.13;5115059;28;20024;-63
2022/01/16 10:43:21;;;;;;;9.50;5.20;;;;;;;5.53;40.83;97389.81;5115004;28;20024;-63
2022/01/16 10:45:51;;;;;;;9.68;4.70;;;;;;;5.37;41.02;97383.81;5114987;28;20024;-63
2022/01/16 10:48:23;;;;;;;7.72;3.65;;;;;;;5.18;41.55;97381.28;5114501;28;20103;-63
2022/01/16 10:50:50;;;;;;;9.55;5.15;;;;;;;5.20;40.37;97383.03;5114804;28;20042;-62
2022/01/16 10:53:19;;;;;;;6.03;4.63;;;;;;;5.18;40.48;97375.25;5114831;28;20027;-62
2022/01/16 10:55:53;;;;;;;7.88;5.18;;;;;;;5.21;41.44;97374.38;5114783;28;20030;-62
2022/01/16 10:58:25;;;;;;;11.73;4.95;;;;;;;5.33;40.65;97370.88;5114800;28;20027;-62
2022/01/16 11:01:00;;;;;;;14.93;8.25;;;;;;;5.34;41.63;97370.88;5114766;28;20026;-62
2022/01/16 11:03:28;;;;;;;10.05;4.90;;;;;;;5.21;41.30;97364.84;5114015;28;20023;-63
2022/01/16 11:05:55;;;;;;;7.80;4.05;;;;;;;5.17;40.38;97361.41;5114591;28;20117;-63
2022/01/16 11:08:25;;;;;;;11.93;4.50;;;;;;;5.22;40.66;97369.16;5114472;28;20047;-62
2022/01/16 11:10:54;;;;;;;;;;;;;;;5.22;41.20;97371.78;5114954;27;20023;-62
2022/01/16 11:13:23;;;;;;;11.52;5.32;;;;;;;5.36;40.61;97368.25;5114443;28;19964;-62
2022/01/16 11:15:52;;;;;;;11.25;5.22;;;;;;;5.11;40.94;97369.19;5114470;28;20076;-62
2022/01/16 11:18:20;;;;;;;9.07;5.25;;;;;;;5.15;39.98;97364.88;5112953;28;20051;-62
2022/01/16 11:23:32;;;;;;;7.50;4.88;;;;;;;5.10;40.48;97359.69;5114236;28;20465;-62
2022/01/16 11:26:02;;;;;;;10.70;4.78;;;;;;;5.16;40.44;97361.41;5114111;28;20131;-62
2022/01/16 11:28:29;;;;;;;10.65;6.40;;;;;;;5.17;42.30;97361.41;5114507;28;20043;-62
2022/01/16 11:31:06;;;;;;;9.85;5.30;;;;;;;5.10;41.17;97361.41;5114203;28;20020;-62
2022/01/16 11:33:34;;;;;;;9.32;5.30;;;;;;;5.17;40.04;97358.81;5114211;28;20038;-62
2022/01/16 11:36:12;;;;;;;8.82;5.47;;;;;;;5.23;41.49;97344.06;5113928;28;20023;-62
2022/01/16 11:38:51;;;;;;;17.13;11.27;;;;;;;5.20;41.73;97352.75;5114149;28;20088;-63
2022/01/16 11:41:24;;;;;;;9.50;6.25;;;;;;;5.35;41.66;97335.38;5114060;28;20431;-62
2022/01/16 11:43:51;;;;;;;10.93;5.57;;;;;;;5.35;41.09;97335.38;5113958;28;20039;-63
2022/01/16 11:46:19;;;;;;;12.20;5.85;;;;;;;5.29;41.84;97331.94;5114088;28;20022;-62
2022/01/16 11:48:50;;;;;;;15.25;6.47;;;;;;;5.21;41.92;97341.47;5113752;28;20038;-62
2022/01/16 11:51:39;;;;;;;9.93;6.03;;;;;;;5.36;41.77;97334.53;5113830;28;20023;-63
2022/01/16 11:54:24;;;;;;;6.90;4.47;;;;;;;5.36;40.63;97327.59;5113795;28;20127;-63
2022/01/16 11:57:19;;;;;;;8.80;5.25;;;;;;;5.17;40.31;97325.09;5113748;28;20023;-63
2022/01/16 11:59:46;;;;;;;9.00;5.45;;;;;;;5.16;42.16;97317.31;5113715;28;20032;-63
2022/01/16 12:02:12;;;;;;;8.45;5.47;;;;;;;5.14;43.17;97313.84;5113518;28;20493;-62
2022/01/16 12:04:44;;;;;;;12.50;6.10;;;;;;;5.06;43.06;97319.94;5113728;28;20056;-62
2022/01/16 12:07:12;;;;;;;10.10;6.78;;;;;;;5.06;43.56;97316.50;5113546;28;20055;-63
2022/01/16 12:12:16;;;;;;;12.02;6.22;;;;;;;5.06;43.22;97316.50;5113511;28;20478;-62
2022/01/16 12:14:55;;;;;;;11.98;6.95;;;;;;;5.14;43.25;97321.63;5116187;28;20036;-62
2022/01/16 12:20:14;;;;;;;11.57;6.30;;;;;;;5.15;42.87;97325.97;5120295;27;20055;-62
2022/01/16 12:22:48;;;;;;;11.73;6.95;;;;;;;5.12;42.86;97313.84;5120220;27;20075;-62
2022/01/16 12:25:40;;;;;;;10.27;6.40;;;;;;;5.09;44.07;97316.44;5120197;27;20031;-62
2022/01/16 12:28:06;;;;;;;10.52;6.97;;;;;;;5.10;44.00;97323.38;5096252;27;20035;-63
2022/01/16 12:30:38;;;;;;;9.30;5.53;;;;;;;5.03;44.00;97319.09;5120433;27;20022;-62
2022/01/16 12:33:16;;;;;;;9.50;6.10;;;;;;;5.09;43.86;97307.81;5118877;28;20028;-62